sensor_id;sensor_type;location;lat;lon;timestamp;temperature;humidity
33825;DHT22;20127;48.962;8.342;2023-03-01T00:02:00;-0.20;94.40
33825;DHT22;20127;48.962;8.342;2023-03-01T00:05:02;-0.20;94.40
33825;DHT22;20127;48.962;8.342;2023-03-01T00:08:04;-0.30;94.40
33825;DHT22;20127;48.962;8.342;2023-03-01T00:11:08;-0.30;94.50
33825;DHT22;20127;48.962;8.342;2023-03-01T00:14:13;-0.30;94.60
33825;DHT22;20127;48.962;8.342;2023-03-01T00:17:16;-0.40;94.70
33825;DHT22;20127;48.962;8.342;2023-03-01T00:20:18;-0.40;94.70
33825;DHT22;20127;48.962;8.342;2023-03-01T00:23:20;-0.40;94.80
33825;DHT22;20127;48.962;8.342;2023-03-01T00:26:23;-0.40;94.90
33825;DHT22;20127;48.962;8.342;2023-03-01T00:29:26;-0.40;94.90
33825;DHT22;20127;48.962;8.342;2023-03-01T00:32:28;-0.40;94.90
33825;DHT22;20127;48.962;8.342;2023-03-01T00:35:31;-0.50;94.90
33825;DHT22;20127;48.962;8.342;2023-03-01T00:38:35;-0.50;95.00
33825;DHT22;20127;48.962;8.342;2023-03-01T00:41:37;-0.40;95.20
33825;DHT22;20127;48.962;8.342;2023-03-01T00:44:41;-0.40;95.20
33825;DHT22;20127;48.962;8.342;2023-03-01T00:47:43;-0.40;95.30
33825;DHT22;20127;48.962;8.342;2023-03-01T00:50:45;-0.40;95.30
33825;DHT22;20127;48.962;8.342;2023-03-01T00:53:47;-0.30;95.60
33825;DHT22;20127;48.962;8.342;2023-03-01T00:56:51;-0.30;95.50
33825;DHT22;20127;48.962;8.342;2023-03-01T00:59:54;-0.30;95.50
33825;DHT22;20127;48.962;8.342;2023-03-01T01:02:55;-0.20;95.50
33825;DHT22;20127;48.962;8.342;2023-03-01T01:05:57;-0.20;95.60
33825;DHT22;20127;48.962;8.342;2023-03-01T01:08:59;-0.20;95.60
33825;DHT22;20127;48.962;8.342;2023-03-01T01:12:01;-0.20;95.70
33825;DHT22;20127;48.962;8.342;2023-03-01T01:15:05;-0.20;95.80
33825;DHT22;20127;48.962;8.342;2023-03-01T01:18:07;-0.30;95.70
33825;DHT22;20127;48.962;8.342;2023-03-01T01:21:10;-0.30;95.70
33825;DHT22;20127;48.962;8.342;2023-03-01T01:24:12;-0.30;95.80
33825;DHT22;20127;48.962;8.342;2023-03-01T01:27:14;-0.40;95.90
33825;DHT22;20127;48.962;8.342;2023-03-01T01:30:17;-0.40;95.90
33825;DHT22;20127;48.962;8.342;2023-03-01T01:33:19;-0.40;96.10
33825;DHT22;20127;48.962;8.342;2023-03-01T01:36:21;-0.40;96.20
33825;DHT22;20127;48.962;8.342;2023-03-01T01:39:23;-0.40;96.30
33825;DHT22;20127;48.962;8.342;2023-03-01T01:42:26;-0.30;96.30
33825;DHT22;20127;48.962;8.342;2023-03-01T01:45:33;-0.30;96.30
33825;DHT22;20127;48.962;8.342;2023-03-01T01:48:39;-0.30;96.40
33825;DHT22;20127;48.962;8.342;2023-03-01T01:51:44;-0.30;96.40
33825;DHT22;20127;48.962;8.342;2023-03-01T01:54:51;-0.30;96.50
33825;DHT22;20127;48.962;8.342;2023-03-01T01:57:58;-0.30;96.70
33825;DHT22;20127;48.962;8.342;2023-03-01T02:01:03;-0.30;96.50
33825;DHT22;20127;48.962;8.342;2023-03-01T02:04:05;-0.30;96.70
33825;DHT22;20127;48.962;8.342;2023-03-01T02:07:13;-0.30;96.70
33825;DHT22;20127;48.962;8.342;2023-03-01T02:10:15;-0.30;96.70
33825;DHT22;20127;48.962;8.342;2023-03-01T02:13:17;-0.30;96.80
33825;DHT22;20127;48.962;8.342;2023-03-01T02:16:20;-0.30;96.80
33825;DHT22;20127;48.962;8.342;2023-03-01T02:19:31;-0.30;96.80
33825;DHT22;20127;48.962;8.342;2023-03-01T02:22:37;-0.30;96.80
33825;DHT22;20127;48.962;8.342;2023-03-01T02:25:47;-0.30;96.90
33825;DHT22;20127;48.962;8.342;2023-03-01T02:28:53;-0.30;96.90
33825;DHT22;20127;48.962;8.342;2023-03-01T02:31:57;-0.40;96.80
33825;DHT22;20127;48.962;8.342;2023-03-01T02:34:59;-0.50;96.90
33825;DHT22;20127;48.962;8.342;2023-03-01T02:38:01;-0.50;97.00
33825;DHT22;20127;48.962;8.342;2023-03-01T02:41:05;-0.50;97.00
33825;DHT22;20127;48.962;8.342;2023-03-01T02:44:09;-0.60;97.00
33825;DHT22;20127;48.962;8.342;2023-03-01T02:47:10;-0.60;97.10
33825;DHT22;20127;48.962;8.342;2023-03-01T02:50:19;-0.70;97.10
33825;DHT22;20127;48.962;8.342;2023-03-01T02:53:29;-0.70;97.20
33825;DHT22;20127;48.962;8.342;2023-03-01T02:56:34;-0.70;97.20
33825;DHT22;20127;48.962;8.342;2023-03-01T02:59:38;-0.80;97.20
33825;DHT22;20127;48.962;8.342;2023-03-01T03:02:41;-0.90;97.30
33825;DHT22;20127;48.962;8.342;2023-03-01T03:05:43;-0.90;97.40
33825;DHT22;20127;48.962;8.342;2023-03-01T03:08:44;-1.00;97.50
33825;DHT22;20127;48.962;8.342;2023-03-01T03:11:47;-1.00;97.50
33825;DHT22;20127;48.962;8.342;2023-03-01T03:14:50;-1.00;97.60
33825;DHT22;20127;48.962;8.342;2023-03-01T03:17:52;-1.00;97.80
33825;DHT22;20127;48.962;8.342;2023-03-01T03:20:55;-1.00;97.90
33825;DHT22;20127;48.962;8.342;2023-03-01T03:23:56;-1.00;97.90
33825;DHT22;20127;48.962;8.342;2023-03-01T03:26:58;-1.00;98.00
33825;DHT22;20127;48.962;8.342;2023-03-01T03:30:01;-0.90;98.10
33825;DHT22;20127;48.962;8.342;2023-03-01T03:33:03;-0.90;98.10
33825;DHT22;20127;48.962;8.342;2023-03-01T03:36:05;-1.00;98.10
33825;DHT22;20127;48.962;8.342;2023-03-01T03:39:07;-1.00;98.20
33825;DHT22;20127;48.962;8.342;2023-03-01T03:42:09;-1.00;98.30
33825;DHT22;20127;48.962;8.342;2023-03-01T03:45:12;-1.10;98.30
33825;DHT22;20127;48.962;8.342;2023-03-01T03:48:14;-1.10;98.40
33825;DHT22;20127;48.962;8.342;2023-03-01T03:51:17;-1.10;98.40
33825;DHT22;20127;48.962;8.342;2023-03-01T03:54:19;-1.20;98.40
33825;DHT22;20127;48.962;8.342;2023-03-01T03:57:21;-1.20;98.50
33825;DHT22;20127;48.962;8.342;2023-03-01T04:00:24;-1.20;98.60
33825;DHT22;20127;48.962;8.342;2023-03-01T04:03:28;-1.20;98.70
33825;DHT22;20127;48.962;8.342;2023-03-01T04:06:30;-1.30;98.70
33825;DHT22;20127;48.962;8.342;2023-03-01T04:09:32;-1.30;98.80
33825;DHT22;20127;48.962;8.342;2023-03-01T04:12:34;-1.20;98.80
33825;DHT22;20127;48.962;8.342;2023-03-01T04:15:37;-1.30;98.90
33825;DHT22;20127;48.962;8.342;2023-03-01T04:18:39;-1.40;98.90
33825;DHT22;20127;48.962;8.342;2023-03-01T04:21:41;-1.40;99.00
33825;DHT22;20127;48.962;8.342;2023-03-01T04:24:43;-1.40;99.20
33825;DHT22;20127;48.962;8.342;2023-03-01T04:27:44;-1.40;99.20
33825;DHT22;20127;48.962;8.342;2023-03-01T04:30:47;-1.40;99.20
33825;DHT22;20127;48.962;8.342;2023-03-01T04:33:51;-1.40;99.30
33825;DHT22;20127;48.962;8.342;2023-03-01T04:36:53;-1.40;99.40
33825;DHT22;20127;48.962;8.342;2023-03-01T04:39:54;-1.40;99.40
33825;DHT22;20127;48.962;8.342;2023-03-01T04:42:56;-1.40;99.60
33825;DHT22;20127;48.962;8.342;2023-03-01T04:46:02;-1.40;99.70
33825;DHT22;20127;48.962;8.342;2023-03-01T04:49:04;-1.40;99.60
33825;DHT22;20127;48.962;8.342;2023-03-01T04:52:06;-1.40;99.70
33825;DHT22;20127;48.962;8.342;2023-03-01T04:55:09;-1.40;99.70
33825;DHT22;20127;48.962;8.342;2023-03-01T04:58:11;-1.40;99.70
33825;DHT22;20127;48.962;8.342;2023-03-01T05:01:16;-1.40;99.80
33825;DHT22;20127;48.962;8.342;2023-03-01T05:04:18;-1.40;99.90
33825;DHT22;20127;48.962;8.342;2023-03-01T05:07:19;-1.40;99.90
33825;DHT22;20127;48.962;8.342;2023-03-01T05:10:22;-1.50;99.90
33825;DHT22;20127;48.962;8.342;2023-03-01T05:13:24;-1.50;99.90
33825;DHT22;20127;48.962;8.342;2023-03-01T05:16:27;-1.50;99.90
33825;DHT22;20127;48.962;8.342;2023-03-01T05:19:31;-1.50;99.90
33825;DHT22;20127;48.962;8.342;2023-03-01T05:22:33;-1.50;99.90
33825;DHT22;20127;48.962;8.342;2023-03-01T05:25:35;-1.60;99.90
33825;DHT22;20127;48.962;8.342;2023-03-01T05:28:40;-1.60;99.90
33825;DHT22;20127;48.962;8.342;2023-03-01T05:31:43;-1.60;99.90
33825;DHT22;20127;48.962;8.342;2023-03-01T05:34:45;-1.60;99.90
33825;DHT22;20127;48.962;8.342;2023-03-01T05:37:48;-1.60;99.90
33825;DHT22;20127;48.962;8.342;2023-03-01T05:40:50;-1.70;99.90
33825;DHT22;20127;48.962;8.342;2023-03-01T05:43:52;-1.60;99.90
33825;DHT22;20127;48.962;8.342;2023-03-01T05:46:55;-1.60;99.90
33825;DHT22;20127;48.962;8.342;2023-03-01T05:49:57;-1.60;99.90
33825;DHT22;20127;48.962;8.342;2023-03-01T05:53:00;-1.60;99.90
33825;DHT22;20127;48.962;8.342;2023-03-01T05:56:03;-1.60;99.90
33825;DHT22;20127;48.962;8.342;2023-03-01T05:59:05;-1.60;99.90
33825;DHT22;20127;48.962;8.342;2023-03-01T06:02:08;-1.60;99.90
33825;DHT22;20127;48.962;8.342;2023-03-01T06:05:11;-1.60;99.90
33825;DHT22;20127;48.962;8.342;2023-03-01T06:08:13;-1.60;99.90
33825;DHT22;20127;48.962;8.342;2023-03-01T06:11:15;-1.60;99.90
33825;DHT22;20127;48.962;8.342;2023-03-01T06:14:17;-1.60;99.90
33825;DHT22;20127;48.962;8.342;2023-03-01T06:17:20;-1.60;99.90
33825;DHT22;20127;48.962;8.342;2023-03-01T06:20:24;-1.60;99.90
33825;DHT22;20127;48.962;8.342;2023-03-01T06:23:26;-1.60;99.90
33825;DHT22;20127;48.962;8.342;2023-03-01T06:26:27;-1.60;99.90
33825;DHT22;20127;48.962;8.342;2023-03-01T06:29:29;-1.50;99.90
33825;DHT22;20127;48.962;8.342;2023-03-01T06:32:32;-1.50;99.90
33825;DHT22;20127;48.962;8.342;2023-03-01T06:35:34;-1.50;99.90
33825;DHT22;20127;48.962;8.342;2023-03-01T06:38:36;-1.40;99.90
33825;DHT22;20127;48.962;8.342;2023-03-01T06:41:38;-1.40;99.90
33825;DHT22;20127;48.962;8.342;2023-03-01T06:44:39;-1.40;99.90
33825;DHT22;20127;48.962;8.342;2023-03-01T06:47:42;-1.30;99.90
33825;DHT22;20127;48.962;8.342;2023-03-01T06:50:44;-1.20;99.90
33825;DHT22;20127;48.962;8.342;2023-03-01T06:53:46;-1.10;99.90
33825;DHT22;20127;48.962;8.342;2023-03-01T06:56:48;-1.00;99.90
33825;DHT22;20127;48.962;8.342;2023-03-01T06:59:49;-0.90;99.90
33825;DHT22;20127;48.962;8.342;2023-03-01T07:02:53;-0.80;99.90
33825;DHT22;20127;48.962;8.342;2023-03-01T07:05:55;-0.60;99.90
33825;DHT22;20127;48.962;8.342;2023-03-01T07:08:56;-0.50;99.90
33825;DHT22;20127;48.962;8.342;2023-03-01T07:11:58;-0.40;99.90
33825;DHT22;20127;48.962;8.342;2023-03-01T07:15:00;-0.20;99.90
33825;DHT22;20127;48.962;8.342;2023-03-01T07:18:03;0.00;99.90
33825;DHT22;20127;48.962;8.342;2023-03-01T07:21:05;0.10;99.90
33825;DHT22;20127;48.962;8.342;2023-03-01T07:24:08;0.30;99.90
33825;DHT22;20127;48.962;8.342;2023-03-01T07:27:09;0.50;99.90
33825;DHT22;20127;48.962;8.342;2023-03-01T07:30:12;0.70;99.90
33825;DHT22;20127;48.962;8.342;2023-03-01T07:33:15;0.80;99.90
33825;DHT22;20127;48.962;8.342;2023-03-01T07:36:16;1.10;99.90
33825;DHT22;20127;48.962;8.342;2023-03-01T07:39:18;1.30;99.90
33825;DHT22;20127;48.962;8.342;2023-03-01T07:42:20;1.40;99.90
33825;DHT22;20127;48.962;8.342;2023-03-01T07:45:21;1.60;99.90
33825;DHT22;20127;48.962;8.342;2023-03-01T07:48:24;1.80;99.90
33825;DHT22;20127;48.962;8.342;2023-03-01T07:51:26;1.90;99.90
33825;DHT22;20127;48.962;8.342;2023-03-01T07:54:28;2.10;99.90
33825;DHT22;20127;48.962;8.342;2023-03-01T07:57:29;2.20;99.90
33825;DHT22;20127;48.962;8.342;2023-03-01T08:00:31;2.30;99.90
33825;DHT22;20127;48.962;8.342;2023-03-01T08:03:35;2.50;99.90
33825;DHT22;20127;48.962;8.342;2023-03-01T08:06:37;2.60;99.80
33825;DHT22;20127;48.962;8.342;2023-03-01T08:09:39;2.70;99.50
33825;DHT22;20127;48.962;8.342;2023-03-01T08:12:41;2.90;99.50
33825;DHT22;20127;48.962;8.342;2023-03-01T08:15:48;3.10;99.00
33825;DHT22;20127;48.962;8.342;2023-03-01T08:18:53;3.00;97.90
33825;DHT22;20127;48.962;8.342;2023-03-01T08:21:56;3.00;98.10
33825;DHT22;20127;48.962;8.342;2023-03-01T08:24:58;3.10;98.00
33825;DHT22;20127;48.962;8.342;2023-03-01T08:28:02;3.40;97.70
33825;DHT22;20127;48.962;8.342;2023-03-01T08:31:13;3.60;97.70
33825;DHT22;20127;48.962;8.342;2023-03-01T08:34:17;3.70;97.40
33825;DHT22;20127;48.962;8.342;2023-03-01T08:37:19;3.90;97.50
33825;DHT22;20127;48.962;8.342;2023-03-01T08:40:21;4.20;97.50
33825;DHT22;20127;48.962;8.342;2023-03-01T08:43:23;4.40;97.20
33825;DHT22;20127;48.962;8.342;2023-03-01T08:46:25;4.60;96.60
33825;DHT22;20127;48.962;8.342;2023-03-01T08:49:28;4.70;96.40
33825;DHT22;20127;48.962;8.342;2023-03-01T08:52:32;4.90;96.30
33825;DHT22;20127;48.962;8.342;2023-03-01T08:55:34;5.10;96.40
33825;DHT22;20127;48.962;8.342;2023-03-01T08:58:36;5.30;94.90
33825;DHT22;20127;48.962;8.342;2023-03-01T09:01:38;5.20;94.60
33825;DHT22;20127;48.962;8.342;2023-03-01T09:04:42;5.30;94.70
33825;DHT22;20127;48.962;8.342;2023-03-01T09:07:44;5.50;94.80
33825;DHT22;20127;48.962;8.342;2023-03-01T09:10:46;5.90;94.90
33825;DHT22;20127;48.962;8.342;2023-03-01T09:13:51;6.20;94.70
33825;DHT22;20127;48.962;8.342;2023-03-01T09:16:53;6.50;93.90
33825;DHT22;20127;48.962;8.342;2023-03-01T09:19:56;6.40;93.00
33825;DHT22;20127;48.962;8.342;2023-03-01T09:22:58;6.40;92.50
33825;DHT22;20127;48.962;8.342;2023-03-01T09:26:01;6.40;91.70
33825;DHT22;20127;48.962;8.342;2023-03-01T09:29:02;6.30;91.80
33825;DHT22;20127;48.962;8.342;2023-03-01T09:32:04;6.40;91.70
33825;DHT22;20127;48.962;8.342;2023-03-01T09:35:09;6.60;91.80
33825;DHT22;20127;48.962;8.342;2023-03-01T09:38:14;6.90;91.50
33825;DHT22;20127;48.962;8.342;2023-03-01T09:41:26;7.00;90.40
33825;DHT22;20127;48.962;8.342;2023-03-01T09:44:38;6.80;89.40
33825;DHT22;20127;48.962;8.342;2023-03-01T09:47:41;6.80;89.70
33825;DHT22;20127;48.962;8.342;2023-03-01T09:50:44;6.90;89.60
33825;DHT22;20127;48.962;8.342;2023-03-01T09:53:47;7.20;89.60
33825;DHT22;20127;48.962;8.342;2023-03-01T09:56:59;7.40;88.80
33825;DHT22;20127;48.962;8.342;2023-03-01T10:03:36;7.70;88.00
33825;DHT22;20127;48.962;8.342;2023-03-01T10:06:45;7.80;86.90
33825;DHT22;20127;48.962;8.342;2023-03-01T10:09:51;7.80;87.00
33825;DHT22;20127;48.962;8.342;2023-03-01T10:12:53;8.10;86.30
33825;DHT22;20127;48.962;8.342;2023-03-01T10:16:00;8.10;85.10
33825;DHT22;20127;48.962;8.342;2023-03-01T10:19:04;8.10;83.50
33825;DHT22;20127;48.962;8.342;2023-03-01T10:22:15;7.90;84.00
33825;DHT22;20127;48.962;8.342;2023-03-01T10:25:23;8.10;84.40
33825;DHT22;20127;48.962;8.342;2023-03-01T10:28:31;8.40;84.00
33825;DHT22;20127;48.962;8.342;2023-03-01T10:31:41;8.30;82.20
33825;DHT22;20127;48.962;8.342;2023-03-01T10:34:44;8.20;81.60
33825;DHT22;20127;48.962;8.342;2023-03-01T10:37:59;8.30;81.70
33825;DHT22;20127;48.962;8.342;2023-03-01T10:41:06;8.20;80.60
33825;DHT22;20127;48.962;8.342;2023-03-01T10:44:11;8.20;81.40
33825;DHT22;20127;48.962;8.342;2023-03-01T10:47:34;8.40;80.90
33825;DHT22;20127;48.962;8.342;2023-03-01T10:50:36;8.60;80.10
33825;DHT22;20127;48.962;8.342;2023-03-01T10:53:41;8.70;80.00
33825;DHT22;20127;48.962;8.342;2023-03-01T10:56:48;8.70;79.90
33825;DHT22;20127;48.962;8.342;2023-03-01T11:00:02;8.80;80.00
33825;DHT22;20127;48.962;8.342;2023-03-01T11:03:15;9.10;79.00
33825;DHT22;20127;48.962;8.342;2023-03-01T11:06:22;9.00;77.40
33825;DHT22;20127;48.962;8.342;2023-03-01T11:09:24;8.90;77.90
33825;DHT22;20127;48.962;8.342;2023-03-01T11:12:27;8.90;77.90
33825;DHT22;20127;48.962;8.342;2023-03-01T11:15:30;9.00;77.40
33825;DHT22;20127;48.962;8.342;2023-03-01T11:18:33;9.00;77.20
33825;DHT22;20127;48.962;8.342;2023-03-01T11:21:37;9.10;76.70
33825;DHT22;20127;48.962;8.342;2023-03-01T11:24:42;9.10;76.70
33825;DHT22;20127;48.962;8.342;2023-03-01T11:27:45;9.20;77.30
33825;DHT22;20127;48.962;8.342;2023-03-01T11:30:51;9.20;75.60
33825;DHT22;20127;48.962;8.342;2023-03-01T11:33:59;9.20;76.40
33825;DHT22;20127;48.962;8.342;2023-03-01T11:37:10;9.70;76.50
33825;DHT22;20127;48.962;8.342;2023-03-01T11:40:16;10.20;75.50
33825;DHT22;20127;48.962;8.342;2023-03-01T11:43:23;10.60;75.50
33825;DHT22;20127;48.962;8.342;2023-03-01T11:46:51;10.50;73.30
33825;DHT22;20127;48.962;8.342;2023-03-01T11:50:14;10.20;73.70
33825;DHT22;20127;48.962;8.342;2023-03-01T11:53:33;10.30;73.60
33825;DHT22;20127;48.962;8.342;2023-03-01T11:56:41;10.80;73.60
33825;DHT22;20127;48.962;8.342;2023-03-01T11:59:57;11.10;73.10
33825;DHT22;20127;48.962;8.342;2023-03-01T12:03:23;11.50;72.80
33825;DHT22;20127;48.962;8.342;2023-03-01T12:06:42;11.70;70.90
33825;DHT22;20127;48.962;8.342;2023-03-01T12:10:01;11.40;70.40
33825;DHT22;20127;48.962;8.342;2023-03-01T12:13:34;11.40;70.40
33825;DHT22;20127;48.962;8.342;2023-03-01T12:17:22;11.50;71.10
33825;DHT22;20127;48.962;8.342;2023-03-01T12:20:33;11.60;69.30
33825;DHT22;20127;48.962;8.342;2023-03-01T12:24:05;11.30;68.90
33825;DHT22;20127;48.962;8.342;2023-03-01T12:27:22;11.10;68.90
33825;DHT22;20127;48.962;8.342;2023-03-01T12:30:34;10.80;68.60
33825;DHT22;20127;48.962;8.342;2023-03-01T12:33:45;10.60;69.00
33825;DHT22;20127;48.962;8.342;2023-03-01T12:37:03;10.80;69.50
33825;DHT22;20127;48.962;8.342;2023-03-01T12:40:56;11.20;68.60
33825;DHT22;20127;48.962;8.342;2023-03-01T12:44:12;11.30;67.80
33825;DHT22;20127;48.962;8.342;2023-03-01T12:47:36;11.30;68.10
33825;DHT22;20127;48.962;8.342;2023-03-01T12:50:44;11.50;68.70
33825;DHT22;20127;48.962;8.342;2023-03-01T12:53:49;12.10;67.80
33825;DHT22;20127;48.962;8.342;2023-03-01T12:56:54;11.90;66.30
33825;DHT22;20127;48.962;8.342;2023-03-01T13:00:06;11.80;67.00
33825;DHT22;20127;48.962;8.342;2023-03-01T13:03:19;11.90;67.30
33825;DHT22;20127;48.962;8.342;2023-03-01T13:06:31;11.90;65.80
33825;DHT22;20127;48.962;8.342;2023-03-01T13:09:41;11.60;66.00
33825;DHT22;20127;48.962;8.342;2023-03-01T13:12:51;11.40;65.80
33825;DHT22;20127;48.962;8.342;2023-03-01T13:15:54;11.10;66.50
33825;DHT22;20127;48.962;8.342;2023-03-01T13:19:07;11.40;66.20
33825;DHT22;20127;48.962;8.342;2023-03-01T13:22:25;11.40;65.80
33825;DHT22;20127;48.962;8.342;2023-03-01T13:25:28;11.60;66.80
33825;DHT22;20127;48.962;8.342;2023-03-01T13:31:57;11.40;65.40
33825;DHT22;20127;48.962;8.342;2023-03-01T13:35:00;11.30;65.60
33825;DHT22;20127;48.962;8.342;2023-03-01T13:41:50;11.60;65.40
33825;DHT22;20127;48.962;8.342;2023-03-01T13:44:53;11.70;65.40
33825;DHT22;20127;48.962;8.342;2023-03-01T13:47:57;11.50;65.50
33825;DHT22;20127;48.962;8.342;2023-03-01T13:51:03;11.60;65.60
33825;DHT22;20127;48.962;8.342;2023-03-01T13:54:05;11.70;65.10
33825;DHT22;20127;48.962;8.342;2023-03-01T13:57:20;11.50;64.80
33825;DHT22;20127;48.962;8.342;2023-03-01T14:00:35;11.50;65.40
33825;DHT22;20127;48.962;8.342;2023-03-01T14:03:41;11.70;65.40
33825;DHT22;20127;48.962;8.342;2023-03-01T14:06:43;12.10;64.70
33825;DHT22;20127;48.962;8.342;2023-03-01T14:09:47;12.10;64.10
33825;DHT22;20127;48.962;8.342;2023-03-01T14:12:52;12.00;64.30
33825;DHT22;20127;48.962;8.342;2023-03-01T14:16:09;11.80;64.40
33825;DHT22;20127;48.962;8.342;2023-03-01T14:19:16;11.80;64.10
33825;DHT22;20127;48.962;8.342;2023-03-01T14:22:21;11.60;64.60
33825;DHT22;20127;48.962;8.342;2023-03-01T14:25:26;11.70;65.10
33825;DHT22;20127;48.962;8.342;2023-03-01T14:28:29;11.80;64.80
33825;DHT22;20127;48.962;8.342;2023-03-01T14:31:40;12.10;64.00
33825;DHT22;20127;48.962;8.342;2023-03-01T14:34:43;11.90;64.10
33825;DHT22;20127;48.962;8.342;2023-03-01T14:37:46;12.00;64.00
33825;DHT22;20127;48.962;8.342;2023-03-01T14:40:52;12.50;64.70
33825;DHT22;20127;48.962;8.342;2023-03-01T14:43:58;13.10;63.80
33825;DHT22;20127;48.962;8.342;2023-03-01T14:47:02;13.10;62.80
33825;DHT22;20127;48.962;8.342;2023-03-01T14:50:07;12.80;62.60
33825;DHT22;20127;48.962;8.342;2023-03-01T14:53:16;12.80;62.80
33825;DHT22;20127;48.962;8.342;2023-03-01T14:56:19;12.60;63.00
33825;DHT22;20127;48.962;8.342;2023-03-01T14:59:22;12.40;61.90
33825;DHT22;20127;48.962;8.342;2023-03-01T15:02:27;12.00;62.40
33825;DHT22;20127;48.962;8.342;2023-03-01T15:05:31;11.80;62.60
33825;DHT22;20127;48.962;8.342;2023-03-01T15:08:34;11.80;63.50
33825;DHT22;20127;48.962;8.342;2023-03-01T15:11:36;11.90;63.30
33825;DHT22;20127;48.962;8.342;2023-03-01T15:14:43;11.80;63.10
33825;DHT22;20127;48.962;8.342;2023-03-01T15:17:52;11.60;63.50
33825;DHT22;20127;48.962;8.342;2023-03-01T15:20:56;11.60;63.70
33825;DHT22;20127;48.962;8.342;2023-03-01T15:24:13;11.70;63.90
33825;DHT22;20127;48.962;8.342;2023-03-01T15:27:22;11.70;63.10
33825;DHT22;20127;48.962;8.342;2023-03-01T15:30:26;11.60;63.30
33825;DHT22;20127;48.962;8.342;2023-03-01T15:33:32;11.40;63.20
33825;DHT22;20127;48.962;8.342;2023-03-01T15:36:40;10.90;63.20
33825;DHT22;20127;48.962;8.342;2023-03-01T15:39:43;10.40;64.00
33825;DHT22;20127;48.962;8.342;2023-03-01T15:42:53;10.00;64.70
33825;DHT22;20127;48.962;8.342;2023-03-01T15:45:56;9.70;65.30
33825;DHT22;20127;48.962;8.342;2023-03-01T15:49:02;9.60;65.70
33825;DHT22;20127;48.962;8.342;2023-03-01T15:52:04;9.30;66.10
33825;DHT22;20127;48.962;8.342;2023-03-01T15:55:15;9.10;66.50
33825;DHT22;20127;48.962;8.342;2023-03-01T15:58:19;8.90;67.00
33825;DHT22;20127;48.962;8.342;2023-03-01T16:01:21;8.80;67.30
33825;DHT22;20127;48.962;8.342;2023-03-01T16:04:24;8.60;67.70
33825;DHT22;20127;48.962;8.342;2023-03-01T16:07:26;8.50;68.00
33825;DHT22;20127;48.962;8.342;2023-03-01T16:10:29;8.40;68.40
33825;DHT22;20127;48.962;8.342;2023-03-01T16:13:33;8.40;68.60
33825;DHT22;20127;48.962;8.342;2023-03-01T16:16:35;8.30;68.80
33825;DHT22;20127;48.962;8.342;2023-03-01T16:19:38;8.20;69.10
33825;DHT22;20127;48.962;8.342;2023-03-01T16:22:40;8.20;69.60
33825;DHT22;20127;48.962;8.342;2023-03-01T16:25:42;8.10;69.80
33825;DHT22;20127;48.962;8.342;2023-03-01T16:28:45;8.00;69.90
33825;DHT22;20127;48.962;8.342;2023-03-01T16:31:47;7.90;70.10
33825;DHT22;20127;48.962;8.342;2023-03-01T16:34:50;7.90;70.40
33825;DHT22;20127;48.962;8.342;2023-03-01T16:37:51;7.80;70.40
33825;DHT22;20127;48.962;8.342;2023-03-01T16:40:54;7.80;70.70
33825;DHT22;20127;48.962;8.342;2023-03-01T16:43:56;7.70;70.90
33825;DHT22;20127;48.962;8.342;2023-03-01T16:46:57;7.70;71.10
33825;DHT22;20127;48.962;8.342;2023-03-01T16:50:00;7.60;71.30
33825;DHT22;20127;48.962;8.342;2023-03-01T16:53:02;7.60;71.40
33825;DHT22;20127;48.962;8.342;2023-03-01T16:56:06;7.50;71.50
33825;DHT22;20127;48.962;8.342;2023-03-01T16:59:08;7.50;71.80
33825;DHT22;20127;48.962;8.342;2023-03-01T17:02:10;7.40;71.80
33825;DHT22;20127;48.962;8.342;2023-03-01T17:05:14;7.40;71.90
33825;DHT22;20127;48.962;8.342;2023-03-01T17:08:16;7.30;72.00
33825;DHT22;20127;48.962;8.342;2023-03-01T17:11:19;7.20;72.20
33825;DHT22;20127;48.962;8.342;2023-03-01T17:14:20;7.10;72.40
33825;DHT22;20127;48.962;8.342;2023-03-01T17:17:22;7.00;72.60
33825;DHT22;20127;48.962;8.342;2023-03-01T17:20:25;6.90;72.90
33825;DHT22;20127;48.962;8.342;2023-03-01T17:23:28;6.80;73.40
33825;DHT22;20127;48.962;8.342;2023-03-01T17:26:30;6.70;73.40
33825;DHT22;20127;48.962;8.342;2023-03-01T17:29:31;6.60;73.70
33825;DHT22;20127;48.962;8.342;2023-03-01T17:32:33;6.50;73.90
33825;DHT22;20127;48.962;8.342;2023-03-01T17:35:36;6.50;74.10
33825;DHT22;20127;48.962;8.342;2023-03-01T17:38:40;6.40;74.30
33825;DHT22;20127;48.962;8.342;2023-03-01T17:41:42;6.30;74.60
33825;DHT22;20127;48.962;8.342;2023-03-01T17:44:43;6.30;74.70
33825;DHT22;20127;48.962;8.342;2023-03-01T17:47:45;6.20;75.00
33825;DHT22;20127;48.962;8.342;2023-03-01T17:50:48;6.30;75.10
33825;DHT22;20127;48.962;8.342;2023-03-01T17:53:50;6.20;75.10
33825;DHT22;20127;48.962;8.342;2023-03-01T17:56:52;6.10;75.20
33825;DHT22;20127;48.962;8.342;2023-03-01T17:59:55;6.00;75.50
33825;DHT22;20127;48.962;8.342;2023-03-01T18:02:57;5.90;75.70
33825;DHT22;20127;48.962;8.342;2023-03-01T18:06:00;5.90;75.90
33825;DHT22;20127;48.962;8.342;2023-03-01T18:09:02;5.80;76.10
33825;DHT22;20127;48.962;8.342;2023-03-01T18:12:04;5.70;76.40
33825;DHT22;20127;48.962;8.342;2023-03-01T18:15:08;5.70;76.60
33825;DHT22;20127;48.962;8.342;2023-03-01T18:18:10;5.60;76.80
33825;DHT22;20127;48.962;8.342;2023-03-01T18:21:13;5.50;76.90
33825;DHT22;20127;48.962;8.342;2023-03-01T18:24:15;5.50;77.10
33825;DHT22;20127;48.962;8.342;2023-03-01T18:27:17;5.40;77.40
33825;DHT22;20127;48.962;8.342;2023-03-01T18:30:19;5.40;77.50
33825;DHT22;20127;48.962;8.342;2023-03-01T18:33:20;5.30;77.70
33825;DHT22;20127;48.962;8.342;2023-03-01T18:36:25;5.20;77.90
33825;DHT22;20127;48.962;8.342;2023-03-01T18:39:27;5.20;78.30
33825;DHT22;20127;48.962;8.342;2023-03-01T18:42:29;5.10;78.50
33825;DHT22;20127;48.962;8.342;2023-03-01T18:45:31;5.00;78.60
33825;DHT22;20127;48.962;8.342;2023-03-01T18:48:32;4.90;78.80
33825;DHT22;20127;48.962;8.342;2023-03-01T18:51:40;4.80;79.20
33825;DHT22;20127;48.962;8.342;2023-03-01T18:54:42;4.70;79.60
33825;DHT22;20127;48.962;8.342;2023-03-01T18:57:44;4.60;79.80
33825;DHT22;20127;48.962;8.342;2023-03-01T19:00:46;4.50;80.10
33825;DHT22;20127;48.962;8.342;2023-03-01T19:03:48;4.40;80.30
33825;DHT22;20127;48.962;8.342;2023-03-01T19:06:51;4.30;80.70
33825;DHT22;20127;48.962;8.342;2023-03-01T19:09:53;4.20;81.00
33825;DHT22;20127;48.962;8.342;2023-03-01T19:12:55;4.10;81.20
33825;DHT22;20127;48.962;8.342;2023-03-01T19:16:02;3.90;81.50
33825;DHT22;20127;48.962;8.342;2023-03-01T19:19:05;3.80;81.80
33825;DHT22;20127;48.962;8.342;2023-03-01T19:22:09;3.70;81.90
33825;DHT22;20127;48.962;8.342;2023-03-01T19:25:10;3.60;82.20
33825;DHT22;20127;48.962;8.342;2023-03-01T19:28:12;3.50;82.50
33825;DHT22;20127;48.962;8.342;2023-03-01T19:31:21;3.40;82.80
33825;DHT22;20127;48.962;8.342;2023-03-01T19:34:24;3.30;83.10
33825;DHT22;20127;48.962;8.342;2023-03-01T19:37:27;3.30;83.50
33825;DHT22;20127;48.962;8.342;2023-03-01T19:40:29;3.20;83.60
33825;DHT22;20127;48.962;8.342;2023-03-01T19:43:31;3.20;83.80
33825;DHT22;20127;48.962;8.342;2023-03-01T19:46:33;3.00;84.00